createdAt,value
2017-09-28T00:01:15.004Z,102423.55
2017-09-28T00:03:42.740Z,102430.00
2017-09-28T00:06:10.454Z,102426.74
2017-09-28T00:08:38.202Z,102432.06
2017-09-28T00:11:05.892Z,102431.26
2017-09-28T00:13:33.646Z,102436.48
2017-09-28T00:16:01.349Z,102427.97
2017-09-28T00:18:29.107Z,102435.78
2017-09-28T00:20:56.805Z,102432.88
2017-09-28T00:23:24.552Z,102423.20
2017-09-28T00:25:52.194Z,102419.00
2017-09-28T00:28:19.954Z,102423.03
2017-09-28T00:30:47.642Z,102423.55
2017-09-28T00:33:15.385Z,102420.89
2017-09-28T00:35:43.136Z,102423.48
2017-09-28T00:38:10.916Z,102416.19
2017-09-28T00:40:38.607Z,102417.00
2017-09-28T00:43:06.394Z,102425.80
2017-09-28T00:45:34.182Z,102416.68
2017-09-28T00:48:01.962Z,102420.15
2017-09-28T00:50:29.677Z,102419.63
2017-09-28T00:52:57.317Z,102424.70
2017-09-28T00:55:25.078Z,102422.18
2017-09-28T00:57:52.765Z,102418.64
2017-09-28T01:00:20.526Z,102420.92
2017-09-28T01:02:48.240Z,102420.26
2017-09-28T01:05:16.002Z,102419.03
2017-09-28T01:07:43.693Z,102416.69
2017-09-28T01:10:11.437Z,102411.40
2017-09-28T01:12:39.151Z,102411.30
2017-09-28T01:15:06.885Z,102407.97
2017-09-28T01:17:34.616Z,102407.97
2017-09-28T01:20:02.370Z,102406.60
2017-09-28T01:22:30.089Z,102407.16
2017-09-28T01:24:57.841Z,102402.64
2017-09-28T01:27:25.543Z,102404.64
2017-09-28T01:29:53.291Z,102395.39
2017-09-28T01:32:20.988Z,102400.02
2017-09-28T01:34:48.725Z,102397.39
2017-09-28T01:37:16.416Z,102395.43
2017-09-28T01:39:44.187Z,102401.28
2017-09-28T01:42:11.872Z,102395.67
2017-09-28T01:44:39.668Z,102399.48
2017-09-28T01:47:07.384Z,102388.31
2017-09-28T01:49:35.123Z,102396.48
2017-09-28T01:52:02.763Z,102391.75
2017-09-28T01:54:30.501Z,102393.16
2017-09-28T01:56:58.183Z,102393.19
2017-09-28T01:59:25.921Z,102389.69
2017-09-28T02:01:53.616Z,102401.77
2017-09-28T02:04:21.381Z,102399.66
2017-09-28T02:06:49.102Z,102390.42
2017-09-28T02:09:16.846Z,102394.17
2017-09-28T02:11:44.494Z,102396.80
2017-09-28T02:14:12.236Z,102387.66
2017-09-28T02:16:39.959Z,102390.35
2017-09-28T02:19:07.725Z,102375.36
2017-09-28T02:21:35.437Z,102381.80
2017-09-28T02:24:03.176Z,102379.42
2017-09-28T02:26:30.890Z,102377.92
2017-09-28T02:28:58.679Z,102384.54
2017-09-28T02:31:26.392Z,102383.28
2017-09-28T02:33:54.105Z,102378.69
2017-09-28T02:36:21.855Z,102383.45
2017-09-28T02:38:49.539Z,102375.92
2017-09-28T02:41:17.277Z,102375.12
2017-09-28T02:43:45.036Z,102379.91
2017-09-28T02:46:12.784Z,102380.58
2017-09-28T02:48:40.478Z,102373.99
2017-09-28T02:51:08.213Z,102375.42
2017-09-28T02:53:35.909Z,102380.81
2017-09-28T02:56:03.651Z,102384.91
2017-09-28T02:58:31.360Z,102375.52
2017-09-28T03:00:59.113Z,102386.02
2017-09-28T03:03:26.811Z,102386.05
2017-09-28T03:05:54.564Z,102382.55
2017-09-28T03:08:22.270Z,102384.23
2017-09-28T03:10:50.031Z,102387.34
2017-09-28T03:13:17.720Z,102389.84
2017-09-28T03:15:45.480Z,102389.14
2017-09-28T03:18:13.179Z,102395.16
2017-09-28T03:20:40.924Z,102389.63
2017-09-28T03:23:08.613Z,102387.89
2017-09-28T03:25:36.355Z,102377.81
2017-09-28T03:28:04.050Z,102372.20
2017-09-28T03:30:31.803Z,102368.18
2017-09-28T03:32:59.498Z,102379.27
2017-09-28T03:35:27.228Z,102388.80
2017-09-28T03:37:54.932Z,102380.11
2017-09-28T03:40:22.687Z,102383.05
2017-09-28T03:42:50.390Z,102377.45
2017-09-28T03:45:18.204Z,102376.27
2017-09-28T03:47:45.942Z,102370.07
2017-09-28T03:50:13.744Z,102363.63
2017-09-28T03:52:41.437Z,102377.63
2017-09-28T03:55:09.237Z,102388.14
2017-09-28T03:57:36.927Z,102387.27
2017-09-28T04:00:04.755Z,102377.00
2017-09-28T04:02:32.472Z,102372.91
2017-09-28T04:05:00.224Z,102374.34
2017-09-28T04:07:27.915Z,102373.58
2017-09-28T04:09:55.661Z,102372.31
2017-09-28T04:12:23.403Z,102372.77
2017-09-28T04:14:51.104Z,102367.69
2017-09-28T04:17:18.860Z,102365.90
2017-09-28T04:19:46.575Z,102363.83
2017-09-28T04:22:14.314Z,102360.64
2017-09-28T04:24:42.029Z,102352.77
2017-09-28T04:27:09.806Z,102366.59
2017-09-28T04:29:37.932Z,102384.66
2017-09-28T04:32:05.686Z,102380.98
2017-09-28T04:34:33.402Z,102373.11
2017-09-28T04:37:01.164Z,102368.59
2017-09-28T04:39:28.888Z,102376.44
2017-09-28T04:41:56.631Z,102387.33
2017-09-28T04:44:24.383Z,102389.81
2017-09-28T04:46:52.125Z,102396.01
2017-09-28T04:49:19.783Z,102385.78
2017-09-28T04:51:47.469Z,102384.39
2017-09-28T04:54:15.117Z,102388.31
2017-09-28T04:56:42.813Z,102384.84
2017-09-28T04:59:10.447Z,102391.59
2017-09-28T05:01:38.135Z,102393.02
2017-09-28T05:04:05.791Z,102391.09
2017-09-28T05:06:33.497Z,102388.19
2017-09-28T05:09:01.157Z,102404.31
2017-09-28T05:11:28.837Z,102412.08
2017-09-28T05:13:56.487Z,102415.41
2017-09-28T05:16:24.187Z,102408.52
2017-09-28T05:18:51.837Z,102413.42
2017-09-28T05:21:19.538Z,102410.34
2017-09-28T05:23:47.268Z,102409.47
2017-09-28T05:26:15.019Z,102415.06
2017-09-28T05:28:42.747Z,102415.31
2017-09-28T05:31:10.508Z,102409.77
2017-09-28T05:33:38.230Z,102414.29
2017-09-28T05:36:06.028Z,102420.49
2017-09-28T05:38:33.747Z,102421.55
2017-09-28T05:41:01.552Z,102422.29
2017-09-28T05:43:29.321Z,102418.41
2017-09-28T05:45:57.109Z,102406.81
2017-09-28T05:48:24.837Z,102400.33
2017-09-28T05:50:52.572Z,102408.10
2017-09-28T05:53:20.327Z,102424.60
2017-09-28T05:55:48.039Z,102416.68
2017-09-28T05:58:15.776Z,102409.57
2017-09-28T06:00:43.499Z,102410.45
2017-09-28T06:03:11.205Z,102418.93
2017-09-28T06:05:38.934Z,102417.98
2017-09-28T06:08:06.665Z,102413.78
2017-09-28T06:10:34.379Z,102426.42
2017-09-28T06:13:02.152Z,102427.83
2017-09-28T06:15:29.878Z,102424.47
2017-09-28T06:17:58.001Z,102429.05
2017-09-28T06:20:25.703Z,102430.31
2017-09-28T06:22:53.456Z,102435.22
2017-09-28T06:25:21.156Z,102434.34
2017-09-28T06:27:48.903Z,102427.27
2017-09-28T06:30:16.631Z,102423.20
2017-09-28T06:32:44.377Z,102416.92
2017-09-28T06:35:12.129Z,102431.19
2017-09-28T06:37:39.823Z,102426.80
2017-09-28T06:40:07.522Z,102431.14
2017-09-28T06:42:35.290Z,102440.68
2017-09-28T06:45:03.058Z,102435.56
2017-09-28T06:47:30.878Z,102424.69
2017-09-28T06:49:58.583Z,102429.75
2017-09-28T06:52:26.324Z,102422.34
2017-09-28T06:54:54.034Z,102426.27
2017-09-28T06:57:21.714Z,102430.81
2017-09-28T06:59:49.417Z,102434.52
2017-09-28T07:02:17.176Z,102432.78
2017-09-28T07:04:44.881Z,102432.34
2017-09-28T07:07:12.641Z,102433.59
2017-09-28T07:09:40.380Z,102439.61
2017-09-28T07:12:08.138Z,102435.19
2017-09-28T07:14:35.844Z,102436.72
2017-09-28T07:17:03.601Z,102431.92
2017-09-28T07:19:31.312Z,102430.59
2017-09-28T07:21:59.069Z,102429.97
2017-09-28T07:24:26.781Z,102434.42
2017-09-28T07:26:54.544Z,102432.22
2017-09-28T07:29:22.252Z,102431.94
2017-09-28T07:31:49.999Z,102436.13
2017-09-28T07:42:45.017Z,102440.50
2017-09-28T07:45:13.944Z,102440.65
2017-09-28T07:47:41.669Z,102437.34
2017-09-28T07:50:09.518Z,102430.98
2017-09-28T07:52:37.270Z,102443.09
2017-09-28T07:55:05.019Z,102445.23
2017-09-28T07:57:32.765Z,102445.11
2017-09-28T08:00:00.486Z,102448.53
2017-09-28T08:02:28.255Z,102452.30
2017-09-28T08:04:55.960Z,102448.89
2017-09-28T08:07:23.698Z,102439.02
2017-09-28T08:09:51.399Z,102443.33
2017-09-28T08:12:19.216Z,102452.03
2017-09-28T08:14:46.887Z,102451.37
2017-09-28T08:17:14.696Z,102440.39
2017-09-28T08:19:42.451Z,102441.70
2017-09-28T08:22:10.215Z,102439.27
2017-09-28T08:24:37.983Z,102445.03
2017-09-28T08:27:05.688Z,102444.47
2017-09-28T08:29:33.474Z,102439.37
2017-09-28T08:32:01.178Z,102442.69
2017-09-28T08:34:28.954Z,102443.95
2017-09-28T08:36:56.664Z,102444.09
2017-09-28T08:39:24.425Z,102443.29
2017-09-28T08:41:52.143Z,102435.59
2017-09-28T08:44:19.945Z,102440.35
2017-09-28T08:46:47.645Z,102437.48
2017-09-28T08:49:22.228Z,102436.18
2017-09-28T08:51:57.875Z,102434.11
2017-09-28T08:54:39.037Z,102433.53
2017-09-28T08:57:29.783Z,102439.23
2017-09-28T08:59:57.462Z,102438.45
2017-09-28T09:02:25.156Z,102436.95
2017-09-28T09:04:59.540Z,102437.78
2017-09-28T09:07:27.526Z,102428.71
2017-09-28T09:09:55.206Z,102428.68
2017-09-28T09:12:22.838Z,102429.94
2017-09-28T09:14:50.542Z,102426.00
2017-09-28T09:17:18.179Z,102428.45
2017-09-28T09:19:50.356Z,102423.69
2017-09-28T09:22:18.393Z,102428.33
2017-09-28T09:24:46.137Z,102431.05
2017-09-28T09:27:13.861Z,102421.48
2017-09-28T09:29:41.615Z,102422.38
2017-09-28T09:32:09.370Z,102408.82
2017-09-28T09:34:37.182Z,102409.87
2017-09-28T09:37:04.895Z,102406.39
2017-09-28T09:39:32.650Z,102409.80
2017-09-28T09:42:00.370Z,102409.20
2017-09-28T09:44:28.061Z,102406.83
2017-09-28T09:46:55.704Z,102404.25
2017-09-28T09:49:23.408Z,102400.12
2017-09-28T09:51:51.068Z,102406.47
2017-09-28T09:54:18.901Z,102410.52
2017-09-28T09:56:46.620Z,102403.94
2017-09-28T09:59:14.383Z,102399.72
2017-09-28T10:01:42.105Z,102391.02
2017-09-28T10:04:09.840Z,102396.70
2017-09-28T10:06:43.161Z,102394.64
2017-09-28T10:09:14.345Z,102396.83
2017-09-28T10:11:45.540Z,102394.14
2017-09-28T10:14:15.681Z,102394.22
2017-09-28T10:16:43.376Z,102387.69
2017-09-28T10:19:11.149Z,102388.41
2017-09-28T10:21:38.879Z,102390.03
2017-09-28T10:24:06.633Z,102395.11
2017-09-28T10:26:34.343Z,102401.25
2017-09-28T10:29:02.119Z,102408.38
2017-09-28T10:31:29.833Z,102409.63
2017-09-28T10:33:57.591Z,102403.55
2017-09-28T10:36:25.314Z,102410.20
2017-09-28T10:38:53.061Z,102405.49
2017-09-28T10:41:20.762Z,102403.49
2017-09-28T10:43:52.880Z,102406.86
2017-09-28T10:46:27.528Z,102400.71
2017-09-28T10:48:55.239Z,102404.23
2017-09-28T10:51:22.929Z,102405.03
2017-09-28T10:53:50.620Z,102397.28
2017-09-28T10:56:18.306Z,102405.38
2017-09-28T10:58:45.953Z,102401.23
2017-09-28T11:01:13.647Z,102406.23
2017-09-28T11:03:45.994Z,102400.03
2017-09-28T11:06:14.046Z,102405.13
2017-09-28T11:08:41.699Z,102403.73
2017-09-28T11:11:09.413Z,102404.95
2017-09-28T11:13:37.055Z,102401.89
2017-09-28T11:16:04.805Z,102402.96
2017-09-28T11:18:32.465Z,102400.30
2017-09-28T11:21:00.179Z,102405.94
2017-09-28T11:23:27.809Z,102399.48
2017-09-28T11:25:55.514Z,102400.50
2017-09-28T11:28:23.154Z,102392.94
2017-09-28T11:31:24.329Z,102393.24
2017-09-28T11:34:08.756Z,102385.92
2017-09-28T11:45:51.978Z,102383.55
2017-09-28T12:02:57.639Z,102381.32
2017-09-28T12:05:25.373Z,102375.84
2017-09-28T12:07:53.033Z,102379.48
2017-09-28T12:10:20.772Z,102376.34
2017-09-28T12:12:48.474Z,102376.37
2017-09-28T12:15:16.221Z,102365.85
2017-09-28T12:17:43.933Z,102367.94
2017-09-28T12:20:11.686Z,102370.18
2017-09-28T12:22:39.400Z,102371.84
2017-09-28T12:25:07.106Z,102375.48
2017-09-28T12:27:34.792Z,102362.95
2017-09-28T12:30:02.586Z,102373.58
2017-09-28T12:32:30.293Z,102374.73
2017-09-28T12:34:58.035Z,102376.83
2017-09-28T12:37:25.723Z,102380.73
2017-09-28T12:39:53.423Z,102384.23
2017-09-28T12:42:21.143Z,102385.13
2017-09-28T12:44:48.971Z,102384.97
2017-09-28T12:47:16.724Z,102393.48
2017-09-28T12:49:44.445Z,102392.83
2017-09-28T12:52:12.204Z,102389.41
2017-09-28T12:54:39.933Z,102397.23
2017-09-28T12:57:07.725Z,102385.44
2017-09-28T12:59:35.442Z,102386.29
2017-09-28T13:02:03.149Z,102389.31
2017-09-28T13:04:30.868Z,102392.45
2017-09-28T13:06:58.984Z,102394.02
2017-09-28T13:15:10.211Z,102381.48
2017-09-28T13:17:37.874Z,102382.23
2017-09-28T13:20:05.604Z,102368.50
2017-09-28T13:22:33.397Z,102384.45
2017-09-28T13:25:01.091Z,102385.54
2017-09-28T13:27:28.824Z,102381.48
2017-09-28T13:29:56.516Z,102381.31
2017-09-28T13:32:24.245Z,102376.27
2017-09-28T13:34:51.940Z,102382.39
2017-09-28T13:37:19.687Z,102375.27
2017-09-28T13:39:47.398Z,102378.25
2017-09-28T13:42:15.089Z,102374.45
2017-09-28T13:44:42.831Z,102378.16
2017-09-28T13:47:10.599Z,102375.42
2017-09-28T13:49:38.269Z,102374.33
2017-09-28T13:52:05.962Z,102375.84
2017-09-28T13:54:37.163Z,102371.42
2017-09-28T13:57:04.998Z,102368.09
2017-09-28T13:59:33.781Z,102369.25
2017-09-28T14:02:03.239Z,102370.67
2017-09-28T14:04:31.116Z,102377.66
2017-09-28T14:06:58.807Z,102378.42
2017-09-28T14:09:26.521Z,102386.64
2017-09-28T14:11:54.283Z,102385.73
2017-09-28T14:14:22.017Z,102383.78
2017-09-28T14:16:49.711Z,102387.61
2017-09-28T14:19:17.414Z,102385.78
2017-09-28T14:21:45.164Z,102380.47
2017-09-28T14:24:12.829Z,102384.69
2017-09-28T14:26:40.512Z,102384.81
2017-09-28T14:29:08.243Z,102380.02
2017-09-28T14:31:35.989Z,102388.70
2017-09-28T14:34:03.729Z,102386.78
2017-09-28T14:36:31.412Z,102385.78
2017-09-28T14:38:59.138Z,102392.68
2017-09-28T14:41:26.817Z,102393.16
2017-09-28T14:43:54.589Z,102390.26
2017-09-28T14:46:22.317Z,102387.75
2017-09-28T14:48:50.018Z,102381.47
2017-09-28T14:51:17.701Z,102384.17
2017-09-28T14:53:45.413Z,102379.77
2017-09-28T14:56:13.348Z,102381.36
2017-09-28T14:58:41.048Z,102385.66
2017-09-28T15:01:08.758Z,102385.25
2017-09-28T15:03:36.457Z,102386.31
2017-09-28T15:06:04.157Z,102384.22
2017-09-28T15:08:31.839Z,102380.38
2017-09-28T15:10:59.667Z,102384.02
2017-09-28T15:13:27.393Z,102382.19
2017-09-28T15:15:59.439Z,102385.39
2017-09-28T15:18:27.121Z,102386.69
2017-09-28T15:21:03.209Z,102381.66
2017-09-28T15:23:35.295Z,102385.20
2017-09-28T15:26:07.549Z,102384.28
2017-09-28T15:28:35.212Z,102386.69
2017-09-28T15:31:07.413Z,102390.67
2017-09-28T15:33:35.098Z,102392.73
2017-09-28T15:36:02.768Z,102389.92
2017-09-28T15:38:30.465Z,102395.40
2017-09-28T15:40:58.150Z,102394.30
2017-09-28T15:43:25.828Z,102395.39
2017-09-28T15:45:53.770Z,102400.77
2017-09-28T15:48:21.541Z,102401.75
2017-09-28T15:50:49.168Z,102403.08
2017-09-28T15:53:16.916Z,102402.25
2017-09-28T15:55:44.550Z,102401.98
2017-09-28T15:58:12.235Z,102400.34
2017-09-28T16:00:39.938Z,102408.79
2017-09-28T16:03:07.678Z,102396.10
2017-09-28T16:05:35.389Z,102396.10
2017-09-28T16:08:03.063Z,102404.09
2017-09-28T16:10:30.753Z,102413.44
2017-09-28T16:12:58.446Z,102405.74
2017-09-28T16:15:26.087Z,102399.83
2017-09-28T16:17:53.777Z,102403.70
2017-09-28T16:20:21.428Z,102399.85
2017-09-28T16:22:49.172Z,102407.56
2017-09-28T16:25:16.919Z,102401.50
2017-09-28T16:27:44.632Z,102405.37
2017-09-28T16:30:12.272Z,102408.55
2017-09-28T16:32:39.959Z,102414.73
2017-09-28T16:35:07.673Z,102403.30
2017-09-28T16:37:35.440Z,102414.45
2017-09-28T16:40:03.146Z,102412.19
2017-09-28T16:42:30.899Z,102412.91
2017-09-28T16:44:58.660Z,102406.22
2017-09-28T16:47:26.413Z,102408.44
2017-09-28T16:49:54.129Z,102415.75
2017-09-28T16:52:22.024Z,102414.26
2017-09-28T16:54:49.751Z,102414.02
2017-09-28T16:57:17.509Z,102411.18
2017-09-28T16:59:45.133Z,102413.55
2017-09-28T17:02:12.833Z,102414.50
2017-09-28T17:04:40.602Z,102412.89
2017-09-28T17:07:08.307Z,102416.66
2017-09-28T17:09:36.067Z,102415.22
2017-09-28T17:12:03.782Z,102417.64
2017-09-28T17:14:31.545Z,102425.72
2017-09-28T17:16:59.252Z,102425.21
2017-09-28T17:19:27.030Z,102418.23
2017-09-28T17:21:54.725Z,102422.55
2017-09-28T17:24:22.480Z,102420.24
2017-09-28T17:26:50.186Z,102417.28
2017-09-28T17:29:17.916Z,102416.53
2017-09-28T17:31:45.624Z,102419.91
2017-09-28T17:34:13.382Z,102422.91
2017-09-28T17:36:41.109Z,102424.52
2017-09-28T17:39:08.893Z,102422.09
2017-09-28T17:41:36.622Z,102419.01
2017-09-28T17:44:04.433Z,102423.28
2017-09-28T17:46:32.135Z,102422.45
2017-09-28T17:49:00.123Z,102421.52
2017-09-28T17:51:27.822Z,102417.12
2017-09-28T17:53:55.622Z,102419.51
2017-09-28T17:56:23.345Z,102421.16
2017-09-28T17:58:51.113Z,102416.33
2017-09-28T18:01:18.801Z,102420.19
2017-09-28T18:03:46.541Z,102417.47
2017-09-28T18:06:14.275Z,102412.83
2017-09-28T18:08:42.094Z,102413.80
2017-09-28T18:11:09.828Z,102411.37
2017-09-28T18:13:37.589Z,102413.61
2017-09-28T18:16:05.294Z,102418.20
2017-09-28T18:18:33.966Z,102414.30
2017-09-28T18:21:01.709Z,102417.41
2017-09-28T18:23:29.474Z,102416.70
2017-09-28T18:25:57.203Z,102412.95
2017-09-28T18:28:24.946Z,102417.47
2017-09-28T18:30:52.668Z,102415.08
2017-09-28T18:33:20.417Z,102416.81
2017-09-28T18:35:48.131Z,102420.19
2017-09-28T18:38:16.045Z,102420.28
2017-09-28T18:40:43.777Z,102413.80
2017-09-28T18:43:11.652Z,102419.14
2017-09-28T18:45:39.506Z,102418.36
2017-09-28T18:48:07.314Z,102424.88
2017-09-28T18:50:35.139Z,102425.77
2017-09-28T18:53:02.914Z,102423.67
2017-09-28T18:55:30.834Z,102424.00
2017-09-28T18:57:58.565Z,102424.48
2017-09-28T19:00:26.325Z,102428.12
2017-09-28T19:02:54.056Z,102424.20
2017-09-28T19:05:21.876Z,102424.05
2017-09-28T19:07:49.602Z,102427.61
2017-09-28T19:10:17.359Z,102428.00
2017-09-28T19:12:45.084Z,102428.05
2017-09-28T19:15:12.835Z,102427.13
2017-09-28T19:17:40.532Z,102425.77
2017-09-28T19:20:08.300Z,102422.35
2017-09-28T19:22:36.008Z,102420.85
2017-09-28T19:25:03.809Z,102421.72
2017-09-28T19:27:31.524Z,102422.13
2017-09-28T19:29:59.210Z,102420.06
2017-09-28T19:32:26.921Z,102423.34
2017-09-28T19:34:54.674Z,102420.59
2017-09-28T19:37:22.406Z,102424.95
2017-09-28T19:39:50.149Z,102421.91
2017-09-28T19:42:17.899Z,102427.34
2017-09-28T19:44:45.602Z,102419.38
2017-09-28T19:47:13.315Z,102421.77
2017-09-28T19:49:41.101Z,102425.00
2017-09-28T19:52:08.826Z,102427.81
2017-09-28T19:54:36.638Z,102426.31
2017-09-28T19:57:04.353Z,102424.69
2017-09-28T19:59:32.103Z,102425.43
2017-09-28T20:01:59.806Z,102422.20
2017-09-28T20:04:27.580Z,102421.22
2017-09-28T20:06:55.311Z,102417.42
2017-09-28T20:09:23.101Z,102424.27
2017-09-28T20:11:50.802Z,102418.50
2017-09-28T20:14:18.569Z,102422.98
2017-09-28T20:16:46.342Z,102421.83
2017-09-28T20:19:14.158Z,102424.69
2017-09-28T20:21:41.919Z,102428.39
2017-09-28T20:24:09.653Z,102421.17
2017-09-28T20:26:37.443Z,102418.46
2017-09-28T20:29:05.170Z,102418.62
2017-09-28T20:31:32.936Z,102418.55
2017-09-28T20:34:00.649Z,102422.48
2017-09-28T20:36:28.410Z,102421.92
2017-09-28T20:38:56.138Z,102426.19
2017-09-28T20:41:23.912Z,102421.43
2017-09-28T20:43:51.636Z,102420.92
2017-09-28T20:46:19.435Z,102415.72
2017-09-28T20:48:47.144Z,102418.11
2017-09-28T20:51:14.925Z,102411.36
2017-09-28T20:53:42.638Z,102413.06
2017-09-28T20:56:10.393Z,102412.81
2017-09-28T20:58:38.126Z,102412.81
2017-09-28T21:01:05.887Z,102408.33
2017-09-28T21:03:33.580Z,102413.43
2017-09-28T21:06:01.328Z,102407.87
2017-09-28T21:08:28.993Z,102419.24
2017-09-28T21:10:56.751Z,102407.08
2017-09-28T21:13:24.467Z,102409.64
2017-09-28T21:15:52.214Z,102410.92
2017-09-28T21:18:19.917Z,102413.16
2017-09-28T21:20:47.694Z,102411.66
2017-09-28T21:23:15.404Z,102406.19
2017-09-28T21:25:43.156Z,102406.19
2017-09-28T21:28:10.851Z,102404.52
2017-09-28T21:30:38.605Z,102408.58
2017-09-28T21:33:06.308Z,102410.13
2017-09-28T21:35:34.054Z,102402.03
2017-09-28T21:38:01.826Z,102404.14
2017-09-28T21:40:29.591Z,102401.66
2017-09-28T21:42:57.287Z,102406.02
2017-09-28T21:45:25.117Z,102400.25
2017-09-28T21:47:52.825Z,102408.82
2017-09-28T21:50:20.611Z,102397.34
2017-09-28T21:52:48.325Z,102398.66
2017-09-28T21:55:16.074Z,102392.20
2017-09-28T21:57:43.799Z,102385.84
2017-09-28T22:00:11.551Z,102388.60
2017-09-28T22:02:39.299Z,102376.53
2017-09-28T22:05:07.006Z,102378.31
2017-09-28T22:07:34.753Z,102376.30
2017-09-28T22:10:02.400Z,102375.68
2017-09-28T22:12:30.142Z,102383.27
2017-09-28T22:14:57.849Z,102378.02
2017-09-28T22:17:25.596Z,102372.08
2017-09-28T22:19:53.300Z,102372.64
2017-09-28T22:22:21.058Z,102370.67
2017-09-28T22:24:48.767Z,102376.56
2017-09-28T22:27:16.519Z,102376.09
2017-09-28T22:29:44.243Z,102373.28
2017-09-28T22:32:11.995Z,102366.83
2017-09-28T22:34:39.710Z,102373.28
2017-09-28T22:37:07.424Z,102371.97
2017-09-28T22:39:35.121Z,102371.69
2017-09-28T22:42:02.882Z,102372.25
2017-09-28T22:44:30.636Z,102374.27
2017-09-28T22:46:58.388Z,102384.89
2017-09-28T22:49:26.083Z,102384.77
2017-09-28T22:51:53.834Z,102382.70
2017-09-28T22:54:21.522Z,102385.55
2017-09-28T22:56:49.271Z,102378.27
2017-09-28T22:59:16.970Z,102382.52
2017-09-28T23:01:44.748Z,102376.39
2017-09-28T23:04:12.486Z,102379.62
2017-09-28T23:06:40.282Z,102375.27
2017-09-28T23:09:07.931Z,102364.12
2017-09-28T23:11:35.695Z,102365.39
2017-09-28T23:14:03.389Z,102360.19
2017-09-28T23:16:31.132Z,102370.67
2017-09-28T23:18:58.840Z,102364.79
2017-09-28T23:21:26.577Z,102367.88
2017-09-28T23:23:54.300Z,102359.03
2017-09-28T23:26:22.061Z,102360.75
2017-09-28T23:28:49.762Z,102360.11
2017-09-28T23:31:17.508Z,102353.73
2017-09-28T23:33:45.212Z,102347.91
2017-09-28T23:36:12.980Z,102355.39
2017-09-28T23:38:40.731Z,102354.41
2017-09-28T23:41:08.482Z,102358.29
2017-09-28T23:43:36.180Z,102358.14
2017-09-28T23:46:03.935Z,102352.53
2017-09-28T23:48:31.683Z,102348.89
2017-09-28T23:50:59.371Z,102339.39
2017-09-28T23:53:27.116Z,102335.00
2017-09-28T23:55:54.775Z,102336.83
2017-09-28T23:58:22.608Z,102338.64
